Time;durP1;ratioP1;P1;durP2;ratioP2;P2;SDS_P1;SDS_P2;PMS_P1;PMS_P2;Temp;Humidity;BMP_temperature;BMP_pressure;BME280_temperature;BME280_humidity;BME280_pressure;Samples;Min_cycle;Max_cycle;Signal;HPM_P1;HPM_P2
2023/05/22 00:00:27;;;;;;;8.30;5.20;;;;;;;13.77;50.80;100860.84;108096;1254;76866;-81
2023/05/22 00:02:54;;;;;;;12.20;5.90;;;;;;;13.74;50.97;100862.94;108125;1252;74639;-81
2023/05/22 00:05:21;;;;;;;12.40;5.50;;;;;;;13.72;50.91;100861.39;108051;1254;71128;-81
2023/05/22 00:07:49;;;;;;;7.60;5.70;;;;;;;13.67;50.92;100860.05;108006;1254;61806;-81
2023/05/22 00:10:19;;;;;;;8.10;5.10;;;;;;;13.63;50.79;100857.26;108058;1254;60526;-81
2023/05/22 00:12:46;;;;;;;6.60;4.60;;;;;;;13.58;50.87;100856.89;108096;1253;73260;-81
2023/05/22 00:15:14;;;;;;;7.30;5.20;;;;;;;13.54;50.87;100855.92;108116;1253;74916;-81
2023/05/22 00:17:43;;;;;;;8.10;5.20;;;;;;;13.51;50.99;100856.88;108280;1253;71471;-80
2023/05/22 00:20:10;;;;;;;6.60;4.60;;;;;;;13.45;51.16;100855.98;108155;1253;62466;-81
2023/05/22 00:22:37;;;;;;;7.10;5.40;;;;;;;13.44;51.15;100853.40;108232;1254;61160;-81
2023/05/22 00:25:05;;;;;;;8.00;4.90;;;;;;;13.42;51.36;100850.34;108114;1253;75398;-83
2023/05/22 00:27:32;;;;;;;6.90;5.10;;;;;;;13.39;51.55;100852.92;108156;1254;73751;-82
2023/05/22 00:30:00;;;;;;;9.00;5.10;;;;;;;13.36;51.46;100850.77;108175;1254;72395;-81
2023/05/22 00:32:27;;;;;;;7.70;4.90;;;;;;;13.35;51.53;100848.56;108195;1254;62377;-80
2023/05/22 00:34:54;;;;;;;7.90;5.30;;;;;;;13.35;51.71;100851.52;108141;1253;61045;-82
2023/05/22 00:37:21;;;;;;;7.90;4.70;;;;;;;13.35;51.81;100851.90;108187;1253;76920;-82
2023/05/22 00:39:49;;;;;;;7.10;4.90;;;;;;;13.32;51.87;100855.17;108137;1254;75125;-81
2023/05/22 00:42:17;;;;;;;7.90;5.10;;;;;;;13.30;51.74;100854.95;108156;1252;72322;-80
2023/05/22 00:44:44;;;;;;;8.20;5.30;;;;;;;13.25;51.66;100849.70;107994;1254;61880;-80
2023/05/22 00:47:11;;;;;;;8.00;4.90;;;;;;;13.22;51.48;100851.65;108085;1254;61184;-80
2023/05/22 00:49:39;;;;;;;6.50;4.90;;;;;;;13.19;51.47;100853.09;108103;1254;73744;-81
2023/05/22 00:52:07;;;;;;;8.90;5.30;;;;;;;13.15;51.50;100851.04;108082;1254;74428;-81
2023/05/22 00:54:34;;;;;;;11.00;5.00;;;;;;;13.13;51.56;100850.69;108018;1254;72516;-85
2023/05/22 00:57:03;;;;;;;7.80;5.30;;;;;;;13.11;51.74;100849.43;108107;1253;60152;-81
2023/05/22 00:59:30;;;;;;;7.20;5.30;;;;;;;13.09;51.83;100852.27;108115;1253;61295;-82
2023/05/22 01:01:57;;;;;;;9.60;5.10;;;;;;;13.06;51.78;100853.67;108186;1254;75202;-81
2023/05/22 01:04:24;;;;;;;7.90;5.20;;;;;;;13.04;51.84;100853.98;107886;1254;71256;-81
2023/05/22 01:06:52;;;;;;;7.90;5.40;;;;;;;12.99;51.89;100846.85;108073;1254;73210;-81
2023/05/22 01:09:19;;;;;;;7.20;5.00;;;;;;;13.00;52.03;100850.92;108052;1253;61844;-81
2023/05/22 01:11:54;;;;;;;7.60;4.80;;;;;;;12.99;52.12;100847.92;108104;1254;62501;-81
2023/05/22 01:14:37;;;;;;;8.70;5.00;;;;;;;12.99;52.21;100845.34;108140;1258;73857;-81
2023/05/22 01:17:36;;;;;;;6.90;4.80;;;;;;;12.99;52.31;100841.27;108135;1254;72430;-82
2023/05/22 01:20:13;;;;;;;7.40;4.90;;;;;;;12.98;52.33;100840.41;108164;1253;72490;-81
2023/05/22 01:22:57;;;;;;;9.40;4.50;;;;;;;12.93;52.35;100834.86;108030;1254;61176;-82
2023/05/22 01:25:33;;;;;;;7.70;4.80;;;;;;;12.89;52.34;100833.21;107787;1254;61976;-82
2023/05/22 01:28:22;;;;;;;7.10;5.00;;;;;;;12.85;52.41;100835.19;108048;1254;76111;-82
2023/05/22 01:31:07;;;;;;;10.80;4.80;;;;;;;12.80;52.48;100840.80;108138;1254;74102;-82
2023/05/22 01:33:56;;;;;;;6.30;4.70;;;;;;;12.78;52.51;100840.05;108054;1254;75316;-82
2023/05/22 01:36:27;;;;;;;8.60;4.40;;;;;;;12.75;52.59;100839.23;107958;1254;61352;-81
2023/05/22 01:38:54;;;;;;;6.20;4.20;;;;;;;12.75;52.57;100838.98;108043;1254;61240;-81
2023/05/22 01:41:21;;;;;;;8.50;4.90;;;;;;;12.71;52.70;100838.31;108161;1253;77030;-81
2023/05/22 01:43:48;;;;;;;5.90;4.70;;;;;;;12.67;52.93;100836.70;108223;1254;74339;-81
2023/05/22 01:46:15;;;;;;;7.40;4.60;;;;;;;12.66;53.10;100837.98;108196;1254;74330;-81
2023/05/22 01:48:42;;;;;;;7.30;4.60;;;;;;;12.65;53.15;100837.77;108176;1254;62646;-81
2023/05/22 01:51:34;;;;;;;5.70;4.70;;;;;;;12.65;53.38;100839.38;108049;1254;60330;-81
2023/05/22 01:54:14;;;;;;;7.00;5.10;;;;;;;12.64;53.49;100837.17;108181;1254;76952;-81
2023/05/22 01:56:53;;;;;;;9.80;5.00;;;;;;;12.64;53.51;100829.34;108176;1253;74981;-81
2023/05/22 01:59:34;;;;;;;6.80;4.70;;;;;;;12.64;53.66;100831.50;107960;1254;74729;-80
2023/05/22 02:02:04;;;;;;;8.10;4.60;;;;;;;12.65;53.74;100828.86;108010;1254;63038;-81
2023/05/22 02:04:31;;;;;;;7.20;4.50;;;;;;;12.67;53.94;100825.45;108163;1253;60960;-81
2023/05/22 02:07:01;;;;;;;7.00;4.90;;;;;;;12.69;53.87;100825.83;108127;1255;75023;-81
2023/05/22 02:09:29;;;;;;;6.20;4.50;;;;;;;12.71;53.79;100831.40;108139;1254;73644;-80
2023/05/22 02:11:57;;;;;;;7.60;4.80;;;;;;;12.71;53.75;100832.58;107959;1254;72697;-80
2023/05/22 02:14:26;;;;;;;9.60;5.00;;;;;;;12.72;53.67;100825.89;108049;1253;64229;-80
2023/05/22 02:16:53;;;;;;;9.30;5.60;;;;;;;12.73;53.63;100829.62;108040;1254;59350;-80
2023/05/22 02:19:20;;;;;;;7.40;4.80;;;;;;;12.73;53.74;100826.02;107926;1260;74786;-81
2023/05/22 02:21:48;;;;;;;9.20;4.90;;;;;;;12.74;53.76;100825.25;108114;1254;73162;-81
2023/05/22 02:24:15;;;;;;;7.10;4.40;;;;;;;12.75;53.72;100820.69;108125;1254;72142;-81
2023/05/22 02:26:42;;;;;;;8.60;5.00;;;;;;;12.77;53.94;100820.42;108059;1252;61174;-80
2023/05/22 02:29:09;;;;;;;7.80;4.80;;;;;;;12.81;53.86;100819.63;108097;1252;61154;-81
2023/05/22 02:31:37;;;;;;;8.50;4.90;;;;;;;12.86;53.84;100820.65;108152;1253;76766;-81
2023/05/22 02:34:05;;;;;;;6.70;4.60;;;;;;;12.91;53.93;100815.90;108166;1254;74789;-80
2023/05/22 02:36:32;;;;;;;8.20;4.80;;;;;;;12.97;53.81;100818.42;108227;1254;71103;-81
2023/05/22 02:38:59;;;;;;;7.20;4.50;;;;;;;13.02;53.72;100818.86;108123;1254;61406;-81
2023/05/22 02:41:26;;;;;;;9.00;4.70;;;;;;;13.06;53.45;100821.02;108231;1254;61266;-82
2023/05/22 02:43:54;;;;;;;9.40;4.40;;;;;;;13.10;53.31;100819.41;108003;1254;210530;-82
2023/05/22 02:46:21;;;;;;;7.80;4.90;;;;;;;13.14;53.18;100817.30;108238;1253;72670;-82
2023/05/22 02:48:49;;;;;;;9.30;4.50;;;;;;;13.18;53.03;100820.16;108276;1253;73300;-82
2023/05/22 02:51:17;;;;;;;6.90;3.90;;;;;;;13.22;52.96;100819.80;108239;1254;62977;-81
2023/05/22 02:53:44;;;;;;;7.50;4.30;;;;;;;13.27;52.94;100817.52;108289;1254;61140;-81
2023/05/22 02:56:11;;;;;;;6.30;4.10;;;;;;;13.33;52.93;100819.86;108184;1254;75026;-83
2023/05/22 02:58:38;;;;;;;6.90;4.30;;;;;;;13.38;52.80;100822.98;108158;1254;73332;-81
2023/05/22 03:01:07;;;;;;;8.40;4.10;;;;;;;13.43;52.83;100824.70;108236;1252;71240;-80
2023/05/22 03:03:35;;;;;;;9.50;4.20;;;;;;;13.46;52.76;100822.23;108175;1256;61004;-81
2023/05/22 03:06:03;;;;;;;12.20;4.40;;;;;;;13.51;52.72;100822.77;108165;1253;60468;-81
2023/05/22 03:08:31;;;;;;;7.10;4.30;;;;;;;13.54;52.70;100825.60;108253;1253;76831;-81
2023/05/22 03:11:00;;;;;;;10.00;4.50;;;;;;;13.59;52.57;100826.13;108295;1254;74750;-81
2023/05/22 03:13:27;;;;;;;11.60;4.60;;;;;;;13.62;52.58;100828.70;108113;1254;72964;-81
2023/05/22 03:15:54;;;;;;;6.50;4.70;;;;;;;13.66;52.42;100829.95;108127;1253;61183;-81
2023/05/22 03:18:22;;;;;;;8.60;4.60;;;;;;;13.69;52.45;100830.84;108159;1254;61148;-82
2023/05/22 03:20:52;;;;;;;8.80;4.70;;;;;;;13.74;52.58;100833.15;108140;1253;75011;-82
2023/05/22 03:23:23;;;;;;;9.70;4.70;;;;;;;13.78;52.60;100833.52;108159;1253;70962;-82
2023/05/22 03:25:51;;;;;;;8.40;5.00;;;;;;;13.84;52.46;100831.89;108113;1257;72878;-82
2023/05/22 03:28:18;;;;;;;7.70;4.70;;;;;;;13.89;52.40;100829.36;108081;1253;63567;-81
2023/05/22 03:30:46;;;;;;;7.90;5.30;;;;;;;13.95;52.45;100830.95;108111;1253;61699;-80
2023/05/22 03:33:18;;;;;;;9.70;4.50;;;;;;;14.04;52.29;100828.14;108088;1253;76604;-81
2023/05/22 03:35:45;;;;;;;5.60;4.30;;;;;;;14.13;52.22;100826.39;108121;1259;70892;-81
2023/05/22 03:38:13;;;;;;;5.30;4.00;;;;;;;14.22;51.92;100823.08;108086;1254;73500;-81
2023/05/22 03:40:40;;;;;;;11.50;4.80;;;;;;;14.31;51.49;100822.77;108188;1252;62641;-82
2023/05/22 03:43:08;;;;;;;8.20;4.90;;;;;;;14.40;51.11;100821.77;108243;1254;62703;-81
2023/05/22 03:45:35;;;;;;;11.30;4.50;;;;;;;14.51;50.74;100825.50;108112;1252;74444;-82
2023/05/22 03:48:02;;;;;;;7.10;4.40;;;;;;;14.63;50.49;100826.68;108154;1254;73126;-81
2023/05/22 03:50:30;;;;;;;6.80;4.40;;;;;;;14.75;50.21;100823.39;108196;1254;74511;-81
2023/05/22 03:52:57;;;;;;;6.50;4.40;;;;;;;14.89;49.94;100825.14;108086;1254;61268;-80
2023/05/22 03:55:25;;;;;;;6.90;4.40;;;;;;;15.01;49.60;100820.79;108031;1254;61144;-81
2023/05/22 03:57:52;;;;;;;6.30;4.20;;;;;;;15.12;49.36;100820.07;108093;1254;73711;-81
2023/05/22 04:00:19;;;;;;;7.20;4.70;;;;;;;15.21;49.15;100820.38;108150;1254;71435;-81
2023/05/22 04:02:46;;;;;;;7.90;4.30;;;;;;;15.31;48.73;100822.57;108115;1254;73202;-81
2023/05/22 04:05:14;;;;;;;5.20;4.00;;;;;;;15.40;48.57;100822.55;108143;1256;62456;-80
2023/05/22 04:07:42;;;;;;;5.70;4.30;;;;;;;15.49;48.49;100821.66;108179;1253;61709;-81
2023/05/22 04:10:10;;;;;;;6.40;3.80;;;;;;;15.58;48.22;100818.56;108159;1254;74618;-80
2023/05/22 04:12:39;;;;;;;6.20;4.30;;;;;;;15.66;47.61;100817.14;108178;1258;71254;-80
2023/05/22 04:15:07;;;;;;;6.70;4.30;;;;;;;15.75;47.35;100815.48;108183;1254;74972;-81
2023/05/22 04:17:38;;;;;;;8.30;4.10;;;;;;;15.84;47.52;100814.55;108220;1254;61732;-81
2023/05/22 04:20:07;;;;;;;6.80;4.30;;;;;;;15.96;47.50;100814.69;108141;1254;61010;-81
2023/05/22 04:22:34;;;;;;;8.40;4.20;;;;;;;16.07;47.35;100815.39;108103;1252;74437;-81
2023/05/22 04:25:02;;;;;;;6.70;3.80;;;;;;;16.19;47.09;100812.02;108065;1254;71974;-82
2023/05/22 04:27:29;;;;;;;6.30;4.20;;;;;;;16.32;46.64;100809.69;108056;1254;72895;-81
2023/05/22 04:29:58;;;;;;;7.00;4.30;;;;;;;16.45;46.33;100804.95;108217;1252;62749;-82
2023/05/22 04:32:26;;;;;;;6.80;4.10;;;;;;;16.58;45.84;100803.38;108194;1254;59997;-82
2023/05/22 04:34:53;;;;;;;10.00;4.80;;;;;;;16.71;45.39;100798.70;108177;1254;73670;-83
2023/05/22 04:37:20;;;;;;;6.50;3.80;;;;;;;16.82;45.10;100799.70;108058;1253;72572;-82
2023/05/22 04:39:51;;;;;;;7.60;4.30;;;;;;;16.94;45.05;100800.34;108022;1254;72375;-82
2023/05/22 04:42:19;;;;;;;6.40;4.20;;;;;;;17.06;44.87;100792.80;108062;1256;61195;-81
2023/05/22 04:44:47;;;;;;;6.90;4.20;;;;;;;17.18;44.50;100791.44;108123;1254;60366;-81
2023/05/22 04:47:14;;;;;;;7.00;3.80;;;;;;;17.32;44.52;100796.31;108048;1254;74611;-82
2023/05/22 04:49:42;;;;;;;5.20;3.40;;;;;;;17.46;43.98;100801.86;108153;1253;74774;-81
2023/05/22 04:52:10;;;;;;;5.50;3.80;;;;;;;17.61;42.76;100800.29;108065;1254;73178;-81
2023/05/22 04:54:37;;;;;;;7.20;3.60;;;;;;;17.74;41.79;100796.88;108095;1254;61541;-82
2023/05/22 04:57:04;;;;;;;6.90;4.00;;;;;;;17.87;41.74;100799.38;108159;1254;60621;-82
2023/05/22 04:59:36;;;;;;;5.40;3.50;;;;;;;18.00;41.41;100803.59;108103;1254;73912;-82
2023/05/22 05:02:04;;;;;;;;;;;;;;;18.13;41.33;100796.84;108214;1254;74458;-82
2023/05/22 05:04:32;;;;;;;4.50;3.30;;;;;;;18.25;40.58;100798.65;108076;1254;74785;-81
2023/05/22 05:06:59;;;;;;;7.10;3.60;;;;;;;18.35;40.76;100799.86;108017;1254;61145;-81
2023/05/22 05:09:26;;;;;;;5.80;3.50;;;;;;;18.45;40.30;100799.73;107903;1254;61258;-81
2023/05/22 05:11:53;;;;;;;7.40;3.50;;;;;;;18.56;39.70;100797.67;108053;1253;75258;-81
2023/05/22 05:14:20;;;;;;;5.50;3.30;;;;;;;18.65;39.79;100798.27;108023;1254;74884;-82
2023/05/22 05:16:50;;;;;;;7.40;3.90;;;;;;;18.74;39.36;100793.02;108169;1254;72849;-82
2023/05/22 05:19:20;;;;;;;6.30;3.80;;;;;;;18.82;39.20;100791.91;108130;1254;62641;-82
2023/05/22 05:21:48;;;;;;;6.30;3.40;;;;;;;18.93;38.89;100789.22;108199;1253;61109;-82
2023/05/22 05:24:18;;;;;;;5.20;3.70;;;;;;;19.02;38.75;100789.81;108089;1253;76723;-82
2023/05/22 05:26:47;;;;;;;5.00;3.30;;;;;;;19.13;38.48;100787.96;108203;1254;72395;-81
2023/05/22 05:29:15;;;;;;;5.70;3.80;;;;;;;19.21;37.75;100789.52;108101;1256;76623;-81
2023/05/22 05:32:06;;;;;;;5.40;3.70;;;;;;;19.31;38.10;100792.24;108113;1254;62942;-81
2023/05/22 05:34:46;;;;;;;5.70;3.60;;;;;;;19.43;38.09;100793.02;108174;1258;61116;-81
2023/05/22 05:37:23;;;;;;;6.10;3.70;;;;;;;19.57;37.84;100799.65;108171;1252;76021;-82
2023/05/22 05:39:51;;;;;;;6.40;3.90;;;;;;;19.65;37.49;100795.83;108099;1253;75083;-82
2023/05/22 05:42:19;;;;;;;5.20;3.30;;;;;;;19.69;37.26;100795.89;108187;1254;72087;-82
2023/05/22 05:44:49;;;;;;;5.00;3.10;;;;;;;19.74;37.28;100791.86;108195;1253;62074;-81
2023/05/22 05:47:17;;;;;;;7.20;4.00;;;;;;;19.80;37.47;100786.36;108215;1253;61662;-82
2023/05/22 05:49:44;;;;;;;6.30;3.70;;;;;;;19.91;37.27;100784.55;108226;1253;74696;-81
2023/05/22 05:52:13;;;;;;;7.00;3.60;;;;;;;20.01;37.05;100788.50;108300;1253;71421;-83
2023/05/22 05:54:45;;;;;;;4.70;3.30;;;;;;;20.12;36.90;100785.86;108141;1252;74051;-82
2023/05/22 05:57:15;;;;;;;7.00;3.30;;;;;;;20.23;36.58;100782.88;108207;1253;61243;-82
2023/05/22 05:59:42;;;;;;;5.80;3.20;;;;;;;20.33;36.13;100781.04;108143;1252;62337;-82
2023/05/22 06:02:27;;;;;;;6.50;4.20;;;;;;;20.41;35.95;100781.32;108303;1254;77279;-82
2023/05/22 06:04:57;;;;;;;6.50;3.30;;;;;;;20.46;36.09;100779.92;108170;1254;73473;-82
2023/05/22 06:07:27;;;;;;;5.20;3.60;;;;;;;20.56;35.95;100771.66;107973;1254;71957;-82
2023/05/22 06:09:54;;;;;;;4.90;3.20;;;;;;;20.69;36.09;100771.69;108082;1256;60558;-81
2023/05/22 06:12:37;;;;;;;8.70;3.70;;;;;;;20.81;35.81;100769.44;108092;1254;61386;-82
2023/05/22 06:15:06;;;;;;;7.10;3.00;;;;;;;20.92;35.68;100769.66;108084;1253;76689;-82
2023/05/22 06:17:33;;;;;;;4.70;3.10;;;;;;;21.04;35.50;100765.87;107986;1253;72703;-82
2023/05/22 06:20:00;;;;;;;6.10;3.20;;;;;;;21.19;35.27;100761.98;108146;1254;73508;-82
2023/05/22 06:22:28;;;;;;;4.60;2.70;;;;;;;21.28;35.46;100764.93;108001;1254;61208;-82
2023/05/22 06:24:57;;;;;;;4.00;2.60;;;;;;;21.41;34.82;100758.42;108176;1254;62435;-82
2023/05/22 06:27:26;;;;;;;5.90;2.80;;;;;;;21.53;34.21;100759.31;108146;1254;77396;-82
2023/05/22 06:29:53;;;;;;;6.30;3.00;;;;;;;21.63;34.09;100758.09;108162;1254;72883;-83
2023/05/22 06:32:23;;;;;;;5.20;3.00;;;;;;;21.73;34.01;100759.26;107992;1254;72390;-82
2023/05/22 06:34:51;;;;;;;5.20;3.10;;;;;;;21.77;33.82;100757.57;108029;1257;62665;-83
2023/05/22 06:37:18;;;;;;;4.80;3.00;;;;;;;21.84;33.77;100759.78;108150;1254;61579;-82
2023/05/22 06:39:46;;;;;;;6.20;2.90;;;;;;;21.93;33.44;100754.46;108131;1254;75221;-83
2023/05/22 06:42:32;;;;;;;4.30;2.60;;;;;;;22.00;33.34;100751.08;108119;1254;71993;-82
2023/05/22 06:45:18;;;;;;;5.40;2.70;;;;;;;22.08;33.66;100753.21;108069;1254;72267;-82
2023/05/22 06:48:10;;;;;;;5.30;2.70;;;;;;;22.18;33.25;100753.85;107943;1254;61097;-82
2023/05/22 06:50:45;;;;;;;5.60;2.70;;;;;;;22.24;32.92;100747.86;107890;1254;61343;-82
2023/05/22 06:53:12;;;;;;;4.00;2.50;;;;;;;22.33;33.15;100750.68;107908;1254;75517;-82
2023/05/22 06:55:40;;;;;;;5.60;2.40;;;;;;;22.45;32.86;100747.63;107989;1253;74300;-82
2023/05/22 06:58:11;;;;;;;;;;;;;;;22.52;32.90;100747.04;108095;1254;72716;-81
2023/05/22 07:00:38;;;;;;;7.60;3.00;;;;;;;22.62;32.99;100744.84;108013;1254;61660;-82
2023/05/22 07:03:13;;;;;;;5.00;2.40;;;;;;;22.74;32.78;100746.55;108128;1254;62225;-81
2023/05/22 07:06:04;;;;;;;6.00;2.50;;;;;;;22.84;32.44;100747.88;108008;1254;75582;-82
2023/05/22 07:08:32;;;;;;;6.20;3.00;;;;;;;22.83;32.04;100740.99;108091;1259;72298;-80
2023/05/22 07:11:00;;;;;;;4.20;2.50;;;;;;;22.82;32.59;100746.15;108182;1254;73816;-83
2023/05/22 07:13:30;;;;;;;5.10;2.70;;;;;;;22.85;31.86;100743.87;108138;1254;61112;-82
2023/05/22 07:15:58;;;;;;;4.10;2.60;;;;;;;22.88;32.04;100742.26;108132;1254;61110;-80
2023/05/22 07:18:26;;;;;;;5.60;2.50;;;;;;;22.95;32.15;100743.51;108118;1254;76775;-82
2023/05/22 07:20:53;;;;;;;5.90;2.70;;;;;;;23.07;32.73;100747.74;108044;1254;72488;-82
2023/05/22 07:23:21;;;;;;;8.90;3.00;;;;;;;23.21;32.27;100741.77;108045;1254;74235;-81
2023/05/22 07:25:51;;;;;;;4.00;2.30;;;;;;;23.35;31.86;100737.02;108136;1254;61217;-81
2023/05/22 07:28:20;;;;;;;4.50;2.60;;;;;;;23.46;31.77;100739.19;108036;1260;59602;-81
2023/05/22 07:30:52;;;;;;;6.30;2.80;;;;;;;23.55;31.69;100739.55;108161;1254;76870;-81
2023/05/22 07:33:19;;;;;;;7.20;2.90;;;;;;;23.58;31.09;100739.40;108195;1254;71391;-81
2023/05/22 07:35:47;;;;;;;5.40;2.70;;;;;;;23.53;31.20;100733.71;107968;1256;73282;-81
2023/05/22 07:38:15;;;;;;;6.00;2.50;;;;;;;23.55;31.37;100733.41;108140;1254;61117;-82
2023/05/22 07:40:47;;;;;;;4.70;2.60;;;;;;;23.68;31.41;100736.95;108110;1254;61103;-83
2023/05/22 07:43:14;;;;;;;5.20;2.70;;;;;;;23.76;30.93;100734.25;108077;1254;74720;-83
2023/05/22 07:45:42;;;;;;;4.50;2.30;;;;;;;23.85;31.05;100729.77;108107;1254;73792;-81
2023/05/22 07:48:11;;;;;;;5.10;2.50;;;;;;;23.96;30.59;100728.63;108068;1254;74563;-84
2023/05/22 07:50:38;;;;;;;5.20;2.40;;;;;;;23.99;29.54;100725.13;108147;1254;61244;-82
2023/05/22 07:53:05;;;;;;;4.50;2.10;;;;;;;23.96;29.23;100723.89;108444;1254;62813;-81
2023/05/22 07:55:35;;;;;;;5.10;2.40;;;;;;;24.02;29.48;100720.55;108829;1254;73379;-81
2023/05/22 07:58:04;;;;;;;3.30;1.80;;;;;;;24.20;29.62;100722.12;108393;1254;74356;-81
2023/05/22 08:00:34;;;;;;;4.70;2.20;;;;;;;24.43;28.85;100719.90;108517;1254;74753;-82
2023/05/22 08:03:01;;;;;;;4.30;2.00;;;;;;;24.69;28.72;100715.63;108893;1257;61337;-81
2023/05/22 08:05:31;;;;;;;4.10;2.00;;;;;;;24.87;27.39;100713.39;108614;1254;61520;-81
2023/05/22 08:07:58;;;;;;;3.90;2.20;;;;;;;24.86;27.23;100714.05;108613;1254;74623;-81
2023/05/22 08:10:25;;;;;;;4.30;2.20;;;;;;;24.80;27.80;100715.77;108456;1254;72782;-80
2023/05/22 08:13:12;;;;;;;5.30;2.20;;;;;;;24.82;27.59;100709.02;108139;1257;73537;-81
2023/05/22 08:15:42;;;;;;;4.50;2.00;;;;;;;24.83;27.92;100709.39;108177;1254;62162;-82
2023/05/22 08:18:10;;;;;;;3.20;1.90;;;;;;;24.93;27.67;100712.52;108135;1254;59534;-82
2023/05/22 08:20:37;;;;;;;5.20;2.20;;;;;;;25.06;26.93;100714.96;108172;1254;75260;-82
2023/05/22 08:23:05;;;;;;;4.00;1.90;;;;;;;25.19;26.81;100711.59;108064;1254;72776;-81
2023/05/22 08:25:32;;;;;;;4.60;2.10;;;;;;;25.37;26.05;100705.40;108057;1255;71956;-81
2023/05/22 08:28:02;;;;;;;4.10;1.90;;;;;;;25.55;25.79;100702.30;108112;1255;61665;-82
2023/05/22 08:30:29;;;;;;;6.60;2.30;;;;;;;25.67;25.86;100698.38;108252;1254;61969;-83
2023/05/22 08:32:56;;;;;;;6.60;2.10;;;;;;;25.73;25.71;100696.31;108269;1254;75379;-81
2023/05/22 08:35:24;;;;;;;5.60;1.90;;;;;;;25.75;25.84;100706.03;108178;1254;72629;-80
2023/05/22 08:37:51;;;;;;;3.90;1.90;;;;;;;25.79;25.65;100704.95;108106;1254;72618;-82
2023/05/22 08:40:19;;;;;;;4.70;2.00;;;;;;;25.72;25.80;100710.67;108255;1254;61214;-82
2023/05/22 08:42:46;;;;;;;5.10;2.20;;;;;;;25.66;25.54;100710.69;108314;1254;61240;-83
2023/05/22 08:45:15;;;;;;;7.70;2.10;;;;;;;25.62;25.59;100707.24;108255;1253;75826;-82
2023/05/22 08:47:43;;;;;;;5.00;2.20;;;;;;;25.64;25.86;100708.30;108220;1253;73195;-81
2023/05/22 08:50:10;;;;;;;5.00;2.00;;;;;;;25.64;26.08;100703.93;108186;1254;72339;-82
2023/05/22 08:52:50;;;;;;;4.30;2.10;;;;;;;25.69;25.82;100705.98;108216;1254;62972;-83
2023/05/22 08:55:18;;;;;;;4.00;2.10;;;;;;;25.69;25.54;100703.27;108214;1253;60247;-82
2023/05/22 08:57:45;;;;;;;3.50;1.80;;;;;;;25.71;25.13;100699.48;108114;1254;74563;-82
2023/05/22 09:00:14;;;;;;;7.00;3.10;;;;;;;25.84;25.19;100704.34;108197;1253;72739;-82
2023/05/22 09:02:41;;;;;;;8.10;4.70;;;;;;;25.96;24.93;100702.56;108117;1254;72700;-83
2023/05/22 09:05:08;;;;;;;4.40;2.30;;;;;;;25.87;25.31;100700.55;108204;1254;61158;-83
2023/05/22 09:07:36;;;;;;;6.10;2.60;;;;;;;25.71;25.35;100702.42;107929;1252;62265;-82
2023/05/22 09:10:06;;;;;;;4.60;1.90;;;;;;;25.60;25.29;100697.90;108148;1254;74803;-82
2023/05/22 09:12:33;;;;;;;6.00;1.80;;;;;;;25.57;25.26;100690.92;108135;1254;75034;-81
2023/05/22 09:15:08;;;;;;;4.10;1.90;;;;;;;25.61;25.62;100701.73;108162;1254;72550;-83
2023/05/22 09:17:39;;;;;;;3.50;1.90;;;;;;;25.74;25.25;100696.65;108149;1253;61349;-81
2023/05/22 09:20:09;;;;;;;3.90;1.80;;;;;;;25.82;25.31;100696.85;108163;1253;61171;-82
2023/05/22 09:22:37;;;;;;;3.90;1.90;;;;;;;25.83;25.06;100698.36;108323;1254;74941;-82
2023/05/22 09:25:05;;;;;;;4.30;1.70;;;;;;;25.76;25.28;100699.42;108185;1254;74801;-82
2023/05/22 09:27:33;;;;;;;5.10;2.20;;;;;;;25.67;24.90;100695.55;108199;1254;72529;-83
2023/05/22 09:30:00;;;;;;;3.30;1.80;;;;;;;25.61;25.05;100694.47;108130;1254;62384;-81
2023/05/22 09:32:30;;;;;;;5.00;2.20;;;;;;;25.63;25.31;100688.98;108217;1253;61313;-83
2023/05/22 09:35:04;;;;;;;4.30;2.00;;;;;;;25.86;25.48;100690.52;108185;1254;75355;-81
2023/05/22 09:37:35;;;;;;;2.70;1.80;;;;;;;26.11;25.18;100686.23;108112;1254;73715;-81
2023/05/22 09:40:06;;;;;;;2.80;2.00;;;;;;;26.27;25.13;100680.84;108193;1254;72153;-80
2023/05/22 09:42:34;;;;;;;3.40;1.80;;;;;;;26.39;25.00;100673.98;108189;1254;61256;-81
2023/05/22 09:45:05;;;;;;;4.10;1.70;;;;;;;26.61;24.70;100669.63;108198;1253;60152;-82
2023/05/22 09:47:35;;;;;;;4.50;2.00;;;;;;;26.78;24.25;100671.66;108270;1254;73871;-81
2023/05/22 09:50:05;;;;;;;4.40;1.90;;;;;;;26.80;23.59;100675.78;108149;1254;74535;-82
2023/05/22 09:52:33;;;;;;;4.10;1.90;;;;;;;26.60;23.32;100677.83;108204;1253;73113;-81
2023/05/22 09:55:07;;;;;;;3.90;2.00;;;;;;;26.30;23.64;100670.88;108181;1254;61108;-82
2023/05/22 09:57:44;;;;;;;3.10;1.60;;;;;;;26.15;23.95;100673.00;108116;1254;62318;-81
2023/05/22 10:00:14;;;;;;;4.00;1.80;;;;;;;26.18;23.91;100667.90;108190;1253;74600;-80
2023/05/22 10:02:44;;;;;;;4.30;1.80;;;;;;;26.24;23.73;100669.67;108182;1254;72538;-81
2023/05/22 10:05:22;;;;;;;3.30;1.80;;;;;;;26.28;23.35;100668.73;108205;1254;73308;-82
2023/05/22 10:07:55;;;;;;;3.90;1.60;;;;;;;26.26;22.99;100667.77;108298;1254;61677;-82
2023/05/22 10:10:23;;;;;;;4.20;1.70;;;;;;;26.29;22.68;100661.02;108191;1252;61510;-82
2023/05/22 10:12:54;;;;;;;3.90;1.70;;;;;;;26.43;22.42;100653.01;108283;1256;75164;-81
2023/05/22 10:15:22;;;;;;;4.00;1.80;;;;;;;26.61;22.33;100650.13;108185;1254;73331;-81
2023/05/22 10:17:49;;;;;;;2.80;1.80;;;;;;;26.84;23.55;100653.45;108072;1257;74141;-82
2023/05/22 10:20:16;;;;;;;5.10;1.50;;;;;;;27.01;22.90;100654.91;108022;1254;60993;-83
2023/05/22 10:22:43;;;;;;;4.80;1.80;;;;;;;26.83;22.66;100652.80;108121;1253;62517;-81
2023/05/22 10:25:10;;;;;;;4.60;2.00;;;;;;;26.42;23.16;100652.58;108062;1253;74653;-81
2023/05/22 10:27:38;;;;;;;3.90;1.90;;;;;;;26.09;23.51;100654.89;108165;1254;73401;-82
2023/05/22 10:30:24;;;;;;;3.40;1.90;;;;;;;25.76;23.67;100655.29;108118;1254;74979;-81
2023/05/22 10:33:16;;;;;;;4.40;1.90;;;;;;;25.45;24.29;100654.81;108064;1257;61451;-82
2023/05/22 10:35:57;;;;;;;3.80;1.70;;;;;;;25.41;24.21;100655.56;108197;1254;59007;-82
2023/05/22 10:38:30;;;;;;;4.20;1.90;;;;;;;25.52;23.94;100649.02;108181;1254;74946;-82
2023/05/22 10:40:57;;;;;;;4.00;1.70;;;;;;;25.79;24.33;100641.19;108295;1253;74787;-81
2023/05/22 10:43:24;;;;;;;2.30;1.60;;;;;;;26.13;23.92;100636.52;108190;1252;74105;-80
2023/05/22 10:46:01;;;;;;;2.60;1.60;;;;;;;26.42;23.55;100636.77;107886;1254;59822;-81
2023/05/22 10:48:29;;;;;;;3.20;1.50;;;;;;;26.57;23.16;100629.02;108143;1254;61248;-82
2023/05/22 10:50:56;;;;;;;4.20;1.90;;;;;;;26.65;22.72;100631.74;108065;1254;74299;-82
2023/05/22 10:53:27;;;;;;;3.20;1.60;;;;;;;26.82;22.78;100629.54;108092;1259;72942;-83
2023/05/22 10:55:55;;;;;;;2.60;1.80;;;;;;;27.01;22.36;100623.58;108320;1254;73129;-83
2023/05/22 10:58:27;;;;;;;4.40;1.60;;;;;;;27.15;22.96;100618.11;108174;1254;61269;-82
2023/05/22 11:01:15;;;;;;;3.10;1.80;;;;;;;27.36;23.07;100610.91;108048;1254;61168;-83
2023/05/22 11:03:56;;;;;;;7.40;2.10;;;;;;;27.65;22.48;100603.88;108138;1253;75275;-82
2023/05/22 11:06:33;;;;;;;2.90;1.80;;;;;;;27.89;21.14;100605.52;108102;1254;72134;-82
2023/05/22 11:09:30;;;;;;;3.60;1.80;;;;;;;27.99;21.05;100611.23;108042;1259;73777;-82
2023/05/22 11:12:16;;;;;;;3.60;1.60;;;;;;;28.13;21.02;100612.03;108083;1254;61301;-82
2023/05/22 11:15:07;;;;;;;5.50;2.00;;;;;;;28.08;20.57;100613.35;108154;1254;62463;-82
2023/05/22 11:17:38;;;;;;;;;;;;;;;27.66;20.83;100612.20;108171;1254;74658;-82
2023/05/22 11:20:21;;;;;;;4.40;2.00;;;;;;;27.27;21.38;100612.11;108177;1254;73108;-81
2023/05/22 11:22:50;;;;;;;9.00;2.20;;;;;;;26.96;21.78;100604.23;108122;1254;75862;-82
2023/05/22 11:25:18;;;;;;;3.40;1.60;;;;;;;26.76;21.73;100614.09;108158;1254;61230;-82
2023/05/22 11:27:46;;;;;;;2.40;1.60;;;;;;;26.58;21.98;100607.51;108148;1254;61199;-82
2023/05/22 11:30:13;;;;;;;3.50;1.60;;;;;;;26.60;22.64;100603.33;108106;1254;75660;-82